Time;durP1;ratioP1;P1;durP2;ratioP2;P2;SDS_P1;SDS_P2;PMS_P1;PMS_P2;Temp;Humidity;BMP_temperature;BMP_pressure;BME280_temperature;BME280_humidity;BME280_pressure;Samples;Min_cycle;Max_cycle;Signal;HPM_P1;HPM_P2
2023/03/21 00:01:32;;;;;;;0.20;0.20;;;6.90;99.90;;;;;;5076274;28;20020;-74
2023/03/21 00:03:58;;;;;;;0.10;0.10;;;6.90;99.90;;;;;;5076729;28;20020;-74
2023/03/21 00:06:23;;;;;;;0.10;0.10;;;6.90;99.90;;;;;;5076096;28;20036;-74
2023/03/21 00:08:49;;;;;;;0.13;0.13;;;6.90;99.90;;;;;;5058158;28;20028;-73
2023/03/21 00:11:15;;;;;;;0.13;0.13;;;6.90;99.90;;;;;;5076324;28;20078;-75
2023/03/21 00:13:42;;;;;;;0.13;0.13;;;6.90;99.90;;;;;;5058601;28;20079;-74
2023/03/21 00:16:09;;;;;;;0.10;0.10;;;6.90;99.90;;;;;;5076485;28;20064;-74
2023/03/21 00:18:35;;;;;;;0.13;0.13;;;6.90;99.90;;;;;;5058585;28;20150;-74
2023/03/21 00:21:04;;;;;;;0.20;0.20;;;6.90;99.90;;;;;;5075349;28;20028;-73
2023/03/21 00:23:31;;;;;;;0.10;0.10;;;7.00;99.90;;;;;;5076401;28;20059;-73
2023/03/21 00:25:57;;;;;;;0.13;0.13;;;7.00;99.90;;;;;;5076199;28;20112;-73
2023/03/21 00:28:26;;;;;;;0.20;0.20;;;7.00;99.90;;;;;;5076264;28;20070;-74
2023/03/21 00:30:57;;;;;;;0.13;0.13;;;7.00;99.90;;;;;;5058317;28;20028;-74
2023/03/21 00:33:22;;;;;;;0.10;0.10;;;7.00;99.90;;;;;;5075676;28;20033;-73
2023/03/21 00:35:50;;;;;;;0.20;0.20;;;7.00;99.90;;;;;;5075993;28;20060;-73
2023/03/21 00:38:17;;;;;;;0.20;0.20;;;7.00;99.90;;;;;;5076203;28;20025;-74
2023/03/21 00:40:43;;;;;;;0.20;0.20;;;7.00;99.90;;;;;;5075712;28;20028;-73
2023/03/21 00:43:10;;;;;;;0.10;0.10;;;7.00;99.90;;;;;;5058058;28;20024;-73
2023/03/21 00:45:36;;;;;;;0.10;0.10;;;7.00;99.90;;;;;;5075839;28;20066;-74
2023/03/21 00:48:03;;;;;;;0.10;0.10;;;7.00;99.90;;;;;;5075698;28;20017;-74
2023/03/21 00:50:29;;;;;;;0.10;0.10;;;7.00;99.90;;;;;;5075925;28;20390;-74
2023/03/21 00:52:54;;;;;;;0.20;0.20;;;7.00;99.90;;;;;;5075743;28;20031;-74
2023/03/21 00:55:20;;;;;;;0.10;0.10;;;7.00;99.90;;;;;;5074923;28;20108;-74
2023/03/21 00:57:46;;;;;;;0.20;0.20;;;7.00;99.90;;;;;;5075977;28;20024;-74
2023/03/21 01:00:13;;;;;;;0.13;0.13;;;6.90;99.90;;;;;;5075649;28;20035;-73
2023/03/21 01:02:55;;;;;;;0.10;0.10;;;6.90;99.90;;;;;;5074872;28;20032;-74
2023/03/21 01:06:01;;;;;;;0.13;0.13;;;6.80;99.90;;;;;;5057051;28;20037;-74
2023/03/21 01:08:08;;;;;;;0.20;0.20;;;6.70;99.90;;;;;;5075481;28;20032;-74
2023/03/21 01:10:37;;;;;;;0.20;0.20;;;6.70;99.90;;;;;;5075408;28;20021;-74
2023/03/21 01:13:03;;;;;;;0.10;0.10;;;6.60;99.90;;;;;;5075528;28;20024;-74
2023/03/21 01:15:28;;;;;;;0.10;0.10;;;6.60;99.90;;;;;;5075114;28;20131;-74
2023/03/21 01:17:54;;;;;;;0.10;0.10;;;6.60;99.90;;;;;;5074751;28;20076;-74
2023/03/21 01:20:19;;;;;;;0.10;0.10;;;6.50;99.90;;;;;;5075464;28;20547;-74
2023/03/21 01:22:45;;;;;;;0.20;0.20;;;6.50;99.90;;;;;;5075127;28;20078;-74
2023/03/21 01:25:10;;;;;;;0.20;0.20;;;6.50;99.90;;;;;;5075197;28;20397;-74
2023/03/21 01:27:36;;;;;;;0.10;0.10;;;6.40;99.90;;;;;;5074911;28;20021;-74
2023/03/21 01:30:03;;;;;;;0.10;0.10;;;6.40;99.90;;;;;;5074722;28;20031;-74
2023/03/21 01:32:28;;;;;;;0.10;0.10;;;6.40;99.90;;;;;;5074996;28;20032;-74
2023/03/21 01:34:54;;;;;;;0.10;0.10;;;6.40;99.90;;;;;;5074663;28;20498;-74
2023/03/21 01:37:20;;;;;;;0.10;0.10;;;6.40;99.90;;;;;;5075391;28;20485;-74
2023/03/21 01:39:45;;;;;;;0.10;0.10;;;6.40;99.90;;;;;;5075686;28;20031;-74
2023/03/21 01:42:14;;;;;;;0.13;0.13;;;6.50;99.90;;;;;;5075867;28;20033;-74
2023/03/21 01:44:55;;;;;;;0.10;0.10;;;6.50;99.90;;;;;;5074740;28;20078;-74
2023/03/21 01:47:21;;;;;;;0.10;0.10;;;6.50;99.90;;;;;;5074732;28;20016;-74
2023/03/21 01:49:49;;;;;;;0.17;0.17;;;6.50;99.90;;;;;;5074893;28;20577;-74
2023/03/21 01:52:29;;;;;;;0.20;0.20;;;6.50;99.90;;;;;;5074222;28;20486;-74
2023/03/21 01:54:56;;;;;;;0.10;0.10;;;6.50;99.90;;;;;;5055885;28;20039;-74
2023/03/21 01:57:31;;;;;;;0.10;0.10;;;6.50;99.90;;;;;;5054435;28;20085;-74
2023/03/21 02:00:00;;;;;;;0.20;0.20;;;6.60;99.90;;;;;;5036409;28;20021;-74
2023/03/21 02:02:30;;;;;;;0.10;0.10;;;6.60;99.90;;;;;;5051777;28;20063;-74
2023/03/21 02:04:57;;;;;;;0.10;0.10;;;6.60;99.90;;;;;;5074347;28;20036;-74
2023/03/21 02:07:34;;;;;;;0.13;0.13;;;6.60;99.90;;;;;;5074185;28;20020;-74
2023/03/21 02:10:06;;;;;;;0.17;0.17;;;6.60;99.90;;;;;;5074284;28;20024;-74
2023/03/21 02:12:32;;;;;;;0.20;0.20;;;6.60;99.90;;;;;;5056374;28;20129;-74
2023/03/21 02:14:58;;;;;;;0.17;0.17;;;6.60;99.90;;;;;;5074061;28;20028;-74
2023/03/21 02:17:40;;;;;;;0.10;0.10;;;6.60;99.90;;;;;;5073758;28;20391;-74
2023/03/21 02:20:27;;;;;;;0.20;0.20;;;6.60;99.90;;;;;;5073833;28;20438;-74
2023/03/21 02:22:52;;;;;;;0.17;0.17;;;6.60;99.90;;;;;;5073928;28;20031;-73
2023/03/21 02:25:25;;;;;;;0.10;0.10;;;6.70;99.90;;;;;;5073864;28;20024;-74
2023/03/21 02:28:29;;;;;;;0.20;0.20;;;6.60;99.90;;;;;;5074314;28;20025;-74
2023/03/21 02:31:25;;;;;;;0.20;0.20;;;6.70;99.90;;;;;;5055470;28;20070;-74
2023/03/21 02:34:36;;;;;;;0.10;0.10;;;6.70;99.90;;;;;;5074103;28;20389;-74
2023/03/21 02:37:19;;;;;;;0.10;0.10;;;6.70;99.90;;;;;;5074089;28;20032;-74
2023/03/21 02:39:53;;;;;;;0.10;0.10;;;6.60;99.90;;;;;;5073257;28;20025;-73
2023/03/21 02:42:40;;;;;;;0.10;0.10;;;6.70;99.90;;;;;;5073681;28;20473;-73
2023/03/21 02:45:09;;;;;;;0.20;0.20;;;6.70;99.90;;;;;;5073699;28;20027;-73
2023/03/21 02:47:43;;;;;;;0.10;0.10;;;6.70;99.90;;;;;;5073845;28;20371;-73
2023/03/21 02:50:11;;;;;;;0.17;0.17;;;6.70;99.90;;;;;;5056426;28;20029;-74
2023/03/21 02:52:38;;;;;;;0.20;0.20;;;6.70;99.90;;;;;;5073667;28;20039;-74
2023/03/21 02:55:12;;;;;;;0.10;0.10;;;6.70;99.90;;;;;;5073441;28;20028;-73
2023/03/21 02:57:40;;;;;;;0.10;0.10;;;6.70;99.90;;;;;;5073873;28;20031;-74
2023/03/21 03:00:11;;;;;;;0.10;0.10;;;6.60;99.90;;;;;;5073081;28;20377;-74
2023/03/21 03:02:37;;;;;;;0.20;0.20;;;6.60;99.90;;;;;;5073770;28;20107;-74
2023/03/21 03:05:13;;;;;;;0.20;0.20;;;6.60;99.90;;;;;;5055611;28;20020;-74
2023/03/21 03:08:05;;;;;;;0.20;0.20;;;6.70;99.90;;;;;;5074053;28;20055;-73
2023/03/21 03:11:13;;;;;;;0.20;0.20;;;6.70;99.90;;;;;;5073864;28;20027;-74
2023/03/21 03:14:05;;;;;;;0.10;0.10;;;6.70;99.90;;;;;;5072261;28;20040;-74
2023/03/21 03:16:43;;;;;;;0.10;0.10;;;6.70;99.90;;;;;;5073064;28;20036;-74
2023/03/21 03:19:19;;;;;;;0.10;0.10;;;6.70;99.90;;;;;;5073504;28;20029;-74
2023/03/21 03:21:53;;;;;;;0.10;0.10;;;6.70;99.90;;;;;;5073727;28;20515;-74
2023/03/21 03:24:26;;;;;;;0.20;0.20;;;6.60;99.90;;;;;;5073514;28;20150;-74
2023/03/21 03:26:59;;;;;;;0.10;0.10;;;6.60;99.90;;;;;;5074202;28;20016;-74
2023/03/21 03:29:28;;;;;;;0.10;0.10;;;6.70;99.90;;;;;;5077527;28;20389;-73
2023/03/21 03:32:15;;;;;;;0.20;0.20;;;6.60;99.90;;;;;;5077145;28;20379;-73
2023/03/21 03:34:48;;;;;;;0.10;0.10;;;6.60;99.90;;;;;;5059111;28;20629;-74
2023/03/21 03:37:19;;;;;;;0.10;0.10;;;6.60;99.90;;;;;;5076721;28;20056;-73
2023/03/21 03:40:07;;;;;;;0.10;0.10;;;6.60;99.90;;;;;;5076899;28;20032;-74
2023/03/21 03:42:41;;;;;;;0.13;0.13;;;6.60;99.90;;;;;;5076966;28;20028;-74
2023/03/21 03:45:09;;;;;;;0.10;0.10;;;6.50;99.90;;;;;;5077521;28;20046;-74
2023/03/21 03:47:56;;;;;;;0.20;0.20;;;6.60;99.90;;;;;;5077192;28;20047;-74
2023/03/21 03:50:33;;;;;;;0.20;0.20;;;6.60;99.90;;;;;;5076651;28;20474;-74
2023/03/21 03:53:15;;;;;;;0.10;0.10;;;6.60;99.90;;;;;;5077031;28;20505;-73
2023/03/21 03:55:44;;;;;;;0.10;0.10;;;6.60;99.90;;;;;;5076903;28;20025;-74
2023/03/21 03:58:10;;;;;;;0.10;0.10;;;6.60;99.90;;;;;;5076960;28;20046;-74
2023/03/21 04:00:36;;;;;;;0.10;0.10;;;6.60;99.90;;;;;;5076372;28;20020;-74
2023/03/21 04:03:02;;;;;;;0.13;0.13;;;6.60;99.90;;;;;;5076687;28;20020;-74
2023/03/21 04:05:28;;;;;;;0.10;0.10;;;6.70;99.90;;;;;;5076011;28;20025;-74
2023/03/21 04:07:53;;;;;;;0.10;0.10;;;6.70;99.90;;;;;;5076802;28;20021;-74
2023/03/21 04:10:20;;;;;;;0.10;0.10;;;6.60;99.90;;;;;;5076514;28;20504;-74
2023/03/21 04:12:45;;;;;;;0.20;0.20;;;6.60;99.90;;;;;;5075741;28;20107;-74
2023/03/21 04:15:11;;;;;;;0.10;0.10;;;6.60;99.90;;;;;;5076494;28;20477;-74
2023/03/21 04:17:38;;;;;;;0.20;0.20;;;6.60;99.90;;;;;;5081843;22;20053;-73
2023/03/21 04:20:05;;;;;;;0.10;0.10;;;6.60;99.90;;;;;;5055570;28;20367;-74
2023/03/21 04:22:32;;;;;;;0.13;0.13;;;6.60;99.90;;;;;;5055632;28;20518;-74
2023/03/21 04:25:00;;;;;;;0.10;0.10;;;6.60;99.90;;;;;;5038076;28;20445;-73
2023/03/21 04:27:26;;;;;;;0.10;0.10;;;6.70;99.90;;;;;;5055143;28;20113;-73
2023/03/21 04:29:51;;;;;;;0.10;0.10;;;6.70;99.90;;;;;;5055703;28;20053;-74
2023/03/21 04:32:18;;;;;;;0.10;0.10;;;6.70;99.90;;;;;;5055389;28;20051;-73
2023/03/21 04:34:48;;;;;;;0.10;0.10;;;6.70;99.90;;;;;;5055538;28;20067;-74
2023/03/21 04:37:19;;;;;;;0.20;0.20;;;6.70;99.90;;;;;;5054638;28;20021;-74
2023/03/21 04:39:46;;;;;;;0.10;0.10;;;6.70;99.90;;;;;;5055550;28;20033;-73
2023/03/21 04:42:13;;;;;;;0.20;0.20;;;6.60;99.90;;;;;;5037315;28;20025;-74
2023/03/21 04:44:39;;;;;;;0.15;0.15;;;6.60;99.90;;;;;;5055151;28;20041;-73
2023/03/21 04:47:05;;;;;;;0.20;0.20;;;6.60;99.90;;;;;;5037001;28;20107;-73
2023/03/21 04:49:33;;;;;;;0.20;0.20;;;6.60;99.90;;;;;;5054760;28;20056;-73
2023/03/21 04:51:59;;;;;;;0.10;0.10;;;6.60;99.90;;;;;;5055019;28;20123;-73
2023/03/21 04:54:24;;;;;;;0.10;0.10;;;6.60;99.90;;;;;;5055051;28;20526;-73
2023/03/21 04:56:50;;;;;;;0.20;0.20;;;6.60;99.90;;;;;;5037075;28;20395;-73
2023/03/21 04:59:17;;;;;;;0.15;0.15;;;6.60;99.90;;;;;;5055027;28;20025;-73
2023/03/21 05:01:43;;;;;;;0.10;0.10;;;6.60;99.90;;;;;;5054195;28;20478;-73
2023/03/21 05:04:10;;;;;;;0.10;0.10;;;6.60;99.90;;;;;;5054898;28;20025;-74
2023/03/21 05:06:36;;;;;;;0.10;0.10;;;6.60;99.90;;;;;;5036893;28;20405;-74
2023/03/21 05:09:05;;;;;;;0.10;0.10;;;6.60;99.90;;;;;;5054828;28;20029;-73
2023/03/21 05:11:36;;;;;;;0.10;0.10;;;6.60;99.90;;;;;;5054081;28;20559;-73
2023/03/21 05:14:05;;;;;;;0.10;0.10;;;6.70;99.90;;;;;;5036959;28;20035;-73
2023/03/21 05:16:33;;;;;;;0.10;0.10;;;6.70;99.90;;;;;;5054385;28;20029;-73
2023/03/21 05:19:03;;;;;;;0.10;0.10;;;6.70;99.90;;;;;;5054154;28;20025;-73
2023/03/21 05:21:40;;;;;;;0.10;0.10;;;6.70;99.90;;;;;;5054475;28;20025;-73
2023/03/21 05:24:12;;;;;;;0.03;0.03;;;6.70;99.90;;;;;;5036622;28;20021;-73
2023/03/21 05:26:38;;;;;;;0.15;0.15;;;6.70;99.90;;;;;;5053834;28;20513;-73
2023/03/21 05:29:04;;;;;;;0.17;0.17;;;6.70;99.90;;;;;;5054351;28;20021;-73
2023/03/21 05:31:30;;;;;;;0.10;0.10;;;6.70;99.90;;;;;;5054383;28;20436;-73
2023/03/21 05:33:56;;;;;;;0.20;0.20;;;6.70;99.90;;;;;;5054265;28;20036;-74
2023/03/21 05:36:21;;;;;;;0.10;0.10;;;6.70;99.90;;;;;;5054177;28;20033;-73
2023/03/21 05:38:47;;;;;;;0.10;0.10;;;6.70;99.90;;;;;;5036158;28;20033;-73
2023/03/21 05:41:13;;;;;;;0.10;0.10;;;6.80;99.90;;;;;;5035860;28;20033;-73
2023/03/21 05:43:39;;;;;;;0.10;0.10;;;6.80;99.90;;;;;;5054340;28;20056;-73
2023/03/21 05:46:05;;;;;;;0.10;0.10;;;6.80;99.90;;;;;;5053958;28;20025;-73
2023/03/21 05:48:31;;;;;;;0.10;0.10;;;6.80;99.90;;;;;;5054286;28;20048;-74
2023/03/21 05:50:56;;;;;;;0.10;0.10;;;6.90;99.90;;;;;;5053575;28;20063;-73
2023/03/21 05:53:22;;;;;;;0.10;0.10;;;6.80;99.90;;;;;;5035384;28;20024;-74
2023/03/21 05:55:47;;;;;;;0.10;0.10;;;6.90;99.90;;;;;;5053749;28;20025;-73
2023/03/21 05:58:13;;;;;;;0.10;0.10;;;6.90;99.90;;;;;;5054027;28;20032;-74
2023/03/21 06:00:39;;;;;;;0.10;0.10;;;6.90;99.90;;;;;;5053878;28;20497;-73
2023/03/21 06:03:04;;;;;;;0.10;0.10;;;7.00;99.90;;;;;;5053204;28;20033;-73
2023/03/21 06:05:30;;;;;;;0.10;0.10;;;7.00;99.90;;;;;;5053493;28;20032;-73
2023/03/21 06:07:55;;;;;;;0.20;0.20;;;7.10;99.90;;;;;;5053604;28;20025;-73
2023/03/21 06:10:21;;;;;;;0.20;0.20;;;7.10;99.90;;;;;;5053983;28;20024;-73
2023/03/21 06:12:47;;;;;;;0.10;0.10;;;7.20;99.90;;;;;;5053925;28;20021;-73
2023/03/21 06:15:12;;;;;;;0.17;0.17;;;7.20;99.90;;;;;;5053174;28;20021;-73
2023/03/21 06:17:38;;;;;;;0.20;0.20;;;7.20;99.90;;;;;;5053435;28;20047;-73
2023/03/21 06:20:05;;;;;;;0.10;0.10;;;7.30;99.90;;;;;;5053542;28;20044;-73
2023/03/21 06:22:31;;;;;;;0.10;0.10;;;7.20;99.90;;;;;;5052985;28;20021;-74
2023/03/21 06:24:57;;;;;;;0.00;0.00;;;7.20;99.90;;;;;;5053603;28;20028;-73
2023/03/21 06:27:23;;;;;;;0.20;0.20;;;7.20;99.90;;;;;;5035431;28;20017;-73
2023/03/21 06:29:48;;;;;;;0.10;0.10;;;7.20;99.90;;;;;;5052900;28;20059;-74
2023/03/21 06:32:15;;;;;;;0.10;0.10;;;7.30;99.90;;;;;;5053154;28;20029;-73
2023/03/21 06:34:41;;;;;;;0.10;0.10;;;7.30;99.90;;;;;;5053093;28;20013;-74
2023/03/21 06:37:06;;;;;;;0.10;0.10;;;7.30;99.90;;;;;;5053452;28;20031;-74
2023/03/21 06:39:32;;;;;;;0.10;0.10;;;7.30;99.90;;;;;;5052866;28;20021;-73
2023/03/21 06:41:58;;;;;;;0.13;0.13;;;7.30;99.90;;;;;;5052655;28;20111;-73
2023/03/21 06:44:24;;;;;;;0.13;0.13;;;7.30;99.90;;;;;;5052837;28;20021;-73
2023/03/21 06:46:53;;;;;;;0.10;0.10;;;7.30;99.90;;;;;;5053003;28;20492;-73
2023/03/21 06:49:19;;;;;;;0.10;0.10;;;7.30;99.90;;;;;;5053291;28;20029;-73
2023/03/21 06:51:45;;;;;;;0.20;0.20;;;7.30;99.90;;;;;;5052210;28;20096;-73
2023/03/21 06:54:10;;;;;;;0.20;0.20;;;7.40;99.90;;;;;;5053163;28;20064;-73
2023/03/21 06:56:36;;;;;;;0.20;0.20;;;7.40;99.90;;;;;;5052858;28;20029;-73
2023/03/21 06:59:02;;;;;;;0.20;0.20;;;7.40;99.90;;;;;;5053456;28;20033;-73
2023/03/21 07:01:29;;;;;;;0.10;0.10;;;7.40;99.90;;;;;;5051920;28;20470;-73
2023/03/21 07:03:56;;;;;;;0.15;0.15;;;7.40;99.90;;;;;;5035156;28;20040;-73
2023/03/21 07:06:25;;;;;;;0.10;0.10;;;7.40;99.90;;;;;;5052058;28;20493;-73
2023/03/21 07:08:51;;;;;;;0.10;0.10;;;7.40;99.90;;;;;;5052920;28;20028;-74
2023/03/21 07:11:16;;;;;;;0.10;0.10;;;7.50;99.90;;;;;;5052874;28;20482;-73
2023/03/21 07:13:42;;;;;;;0.10;0.10;;;7.50;99.90;;;;;;5052752;28;20071;-73
2023/03/21 07:16:08;;;;;;;0.10;0.10;;;7.50;99.90;;;;;;5052070;28;20489;-74
2023/03/21 07:18:34;;;;;;;0.20;0.20;;;7.60;99.90;;;;;;5052960;28;20032;-74
2023/03/21 07:21:00;;;;;;;0.10;0.10;;;7.60;99.90;;;;;;5034695;28;20039;-73
2023/03/21 07:23:27;;;;;;;0.10;0.10;;;7.60;99.90;;;;;;5052045;28;20494;-74
2023/03/21 07:25:53;;;;;;;0.10;0.10;;;7.60;99.90;;;;;;5052639;28;20025;-73
2023/03/21 07:28:19;;;;;;;0.10;0.10;;;7.60;99.90;;;;;;5053036;28;20040;-74
2023/03/21 07:30:50;;;;;;;0.13;0.13;;;7.60;99.90;;;;;;5052348;28;20022;-73
2023/03/21 07:33:16;;;;;;;0.13;0.13;;;7.70;99.90;;;;;;5052619;28;20060;-74
2023/03/21 07:35:41;;;;;;;0.10;0.10;;;7.70;99.90;;;;;;5052430;28;20053;-73
2023/03/21 07:38:07;;;;;;;0.20;0.20;;;7.70;99.90;;;;;;5052123;28;20048;-74
2023/03/21 07:40:32;;;;;;;0.20;0.20;;;7.80;99.90;;;;;;5052466;28;20063;-74
2023/03/21 07:42:58;;;;;;;0.20;0.20;;;7.80;99.90;;;;;;5052441;28;20032;-74
2023/03/21 07:45:25;;;;;;;0.10;0.10;;;7.90;99.90;;;;;;5051955;28;20118;-72
2023/03/21 07:47:52;;;;;;;0.10;0.10;;;7.90;99.90;;;;;;5052232;28;20025;-74
2023/03/21 07:50:18;;;;;;;0.10;0.10;;;8.00;99.90;;;;;;5052238;28;20021;-73
2023/03/21 07:52:44;;;;;;;0.10;0.10;;;8.00;99.90;;;;;;5052451;28;20482;-73
2023/03/21 07:55:10;;;;;;;0.10;0.10;;;8.10;99.90;;;;;;5051826;28;20094;-74
2023/03/21 07:57:35;;;;;;;0.10;0.10;;;8.20;99.90;;;;;;5052365;28;20052;-74
2023/03/21 08:00:03;;;;;;;0.15;0.15;;;8.20;99.90;;;;;;5052558;28;20479;-74
2023/03/21 08:02:29;;;;;;;0.13;0.13;;;8.20;99.90;;;;;;5052226;28;20021;-74
2023/03/21 08:04:55;;;;;;;0.10;0.10;;;8.30;99.90;;;;;;5051962;28;20017;-74
2023/03/21 08:07:20;;;;;;;0.10;0.10;;;8.30;99.90;;;;;;5034062;28;20120;-74
2023/03/21 08:09:46;;;;;;;0.10;0.10;;;8.40;99.90;;;;;;5052587;28;20108;-74
2023/03/21 08:12:11;;;;;;;0.10;0.10;;;8.50;99.90;;;;;;5052628;28;20032;-73
2023/03/21 08:14:37;;;;;;;0.10;0.10;;;8.50;99.90;;;;;;5055397;28;20037;-74
2023/03/21 08:17:04;;;;;;;0.20;0.20;;;8.50;99.90;;;;;;5056099;28;20120;-74
2023/03/21 08:19:30;;;;;;;0.10;0.10;;;8.60;99.90;;;;;;5055558;28;20060;-73
2023/03/21 08:21:59;;;;;;;0.10;0.10;;;8.60;99.90;;;;;;5055253;28;20068;-74
2023/03/21 08:24:26;;;;;;;0.10;0.10;;;8.70;99.90;;;;;;5055936;28;20021;-74
2023/03/21 08:26:51;;;;;;;0.10;0.10;;;8.70;99.90;;;;;;5037543;28;20024;-74
2023/03/21 08:29:17;;;;;;;0.20;0.20;;;8.80;99.90;;;;;;5055589;28;20027;-74
2023/03/21 08:31:42;;;;;;;0.10;0.10;;;8.80;99.90;;;;;;5055032;28;20025;-74
2023/03/21 08:34:08;;;;;;;0.20;0.20;;;8.80;99.90;;;;;;5055628;28;20029;-74
2023/03/21 08:36:36;;;;;;;0.20;0.20;;;8.80;99.90;;;;;;5037541;28;20029;-74
2023/03/21 08:39:04;;;;;;;0.20;0.20;;;8.80;99.90;;;;;;5055340;28;20025;-74
2023/03/21 08:41:34;;;;;;;0.20;0.20;;;8.80;99.90;;;;;;5054443;28;20018;-74
2023/03/21 08:44:00;;;;;;;0.10;0.10;;;8.80;99.90;;;;;;5055196;28;20032;-73
2023/03/21 08:46:26;;;;;;;0.20;0.20;;;8.90;99.90;;;;;;5055069;28;20029;-74
2023/03/21 08:48:53;;;;;;;0.10;0.10;;;8.90;99.90;;;;;;5055528;28;20021;-74
2023/03/21 08:51:18;;;;;;;0.20;0.20;;;8.90;99.90;;;;;;5054833;28;20504;-73
2023/03/21 08:53:44;;;;;;;0.10;0.10;;;8.90;99.90;;;;;;5054576;28;20017;-74
2023/03/21 08:56:10;;;;;;;0.10;0.10;;;9.00;99.90;;;;;;5055081;28;20029;-74
2023/03/21 08:58:37;;;;;;;0.10;0.10;;;9.00;99.90;;;;;;5037329;28;20033;-73
2023/03/21 09:01:05;;;;;;;0.03;0.03;;;9.10;99.90;;;;;;5054752;28;20105;-72
2023/03/21 09:03:31;;;;;;;0.10;0.10;;;9.10;99.90;;;;;;5055082;28;20032;-73
2023/03/21 09:05:57;;;;;;;0.13;0.13;;;9.10;99.90;;;;;;5036115;28;20540;-72
2023/03/21 09:08:23;;;;;;;0.13;0.13;;;9.10;99.90;;;;;;5054858;28;20028;-73
2023/03/21 09:10:53;;;;;;;0.10;0.10;;;9.10;99.90;;;;;;5054920;28;20025;-73
2023/03/21 09:13:18;;;;;;;0.10;0.10;;;9.20;99.90;;;;;;5055141;28;20018;-72
2023/03/21 09:15:44;;;;;;;0.20;0.20;;;9.20;99.90;;;;;;5053731;28;20025;-73
2023/03/21 09:18:12;;;;;;;0.20;0.20;;;9.30;99.90;;;;;;5054682;28;20091;-73
2023/03/21 09:20:42;;;;;;;0.10;0.10;;;9.30;99.90;;;;;;5054360;28;20028;-72
2023/03/21 09:23:09;;;;;;;0.10;0.10;;;9.30;99.90;;;;;;5036299;28;20116;-72
2023/03/21 09:25:36;;;;;;;0.10;0.10;;;9.30;99.90;;;;;;5053581;28;20025;-72
2023/03/21 09:28:05;;;;;;;0.20;0.20;;;9.40;99.90;;;;;;5036434;28;20025;-72
2023/03/21 09:30:34;;;;;;;0.13;0.13;;;9.50;99.90;;;;;;5054776;28;20028;-73
2023/03/21 09:33:02;;;;;;;0.10;0.10;;;9.50;99.90;;;;;;5053525;28;20108;-73
2023/03/21 09:35:28;;;;;;;0.10;0.10;;;9.50;99.90;;;;;;5054107;28;20045;-73
2023/03/21 09:37:57;;;;;;;0.17;0.17;;;9.50;99.90;;;;;;5054626;28;20037;-73
2023/03/21 09:41:05;;;;;;;0.10;0.10;;;9.40;99.90;;;;;;5054163;28;20112;-73
2023/03/21 09:43:54;;;;;;;0.10;0.10;;;9.50;99.90;;;;;;5022591;28;20043;-73
2023/03/21 09:46:26;;;;;;;0.20;0.20;;;9.40;99.90;;;;;;5053583;28;20475;-72
2023/03/21 09:49:08;;;;;;;0.13;0.13;;;9.50;99.90;;;;;;5036119;28;20032;-73
2023/03/21 09:51:40;;;;;;;0.10;0.10;;;9.50;99.90;;;;;;5054367;28;20013;-73
2023/03/21 09:54:26;;;;;;;0.10;0.10;;;9.40;99.90;;;;;;5053362;28;20506;-73
2023/03/21 09:56:57;;;;;;;0.10;0.10;;;9.50;99.90;;;;;;5053907;28;20395;-73
2023/03/21 09:59:35;;;;;;;0.20;0.20;;;9.50;99.90;;;;;;5053710;28;20021;-73
2023/03/21 10:02:02;;;;;;;0.20;0.20;;;9.50;99.90;;;;;;5053785;28;20040;-73
2023/03/21 10:04:28;;;;;;;0.10;0.10;;;9.60;99.90;;;;;;5053471;28;20021;-72
2023/03/21 10:07:00;;;;;;;0.10;0.10;;;9.70;99.90;;;;;;5035434;28;20021;-73
2023/03/21 10:09:28;;;;;;;0.10;0.10;;;9.70;99.90;;;;;;5053791;28;20482;-73
2023/03/21 10:12:07;;;;;;;0.10;0.10;;;9.70;99.90;;;;;;5053349;28;20024;-73
2023/03/21 10:14:38;;;;;;;0.10;0.10;;;9.70;99.90;;;;;;5053815;28;20029;-73
2023/03/21 10:17:31;;;;;;;0.10;0.10;;;9.70;99.90;;;;;;5066944;23;20504;-73
2023/03/21 10:20:10;;;;;;;0.10;0.10;;;9.70;99.90;;;;;;5031492;28;20032;-73
2023/03/21 10:22:36;;;;;;;0.10;0.10;;;9.70;99.90;;;;;;5054125;28;20027;-74
2023/03/21 10:25:03;;;;;;;0.10;0.10;;;9.70;99.90;;;;;;5054265;28;20437;-73
2023/03/21 10:27:30;;;;;;;0.20;0.20;;;9.70;99.90;;;;;;5041146;28;20021;-73
2023/03/21 10:29:56;;;;;;;0.20;0.20;;;9.60;99.90;;;;;;5033436;28;20071;-73
2023/03/21 10:32:22;;;;;;;0.10;0.10;;;9.60;99.90;;;;;;5033820;28;20026;-74
2023/03/21 10:34:54;;;;;;;0.10;0.10;;;9.60;99.90;;;;;;5034209;28;20022;-74
2023/03/21 10:37:21;;;;;;;0.10;0.10;;;9.60;99.90;;;;;;5015520;28;20037;-74
2023/03/21 10:39:50;;;;;;;0.10;0.10;;;9.70;99.90;;;;;;5033831;28;20025;-73
2023/03/21 10:42:21;;;;;;;0.10;0.10;;;9.70;99.90;;;;;;5034186;28;20554;-74
2023/03/21 10:44:49;;;;;;;0.10;0.10;;;9.70;99.90;;;;;;5033546;28;20025;-73
2023/03/21 10:47:26;;;;;;;0.10;0.10;;;9.70;99.90;;;;;;5034456;28;20037;-74
2023/03/21 10:49:52;;;;;;;0.10;0.10;;;9.70;99.90;;;;;;5033265;28;20025;-73
2023/03/21 10:52:21;;;;;;;0.10;0.10;;;9.60;99.90;;;;;;5034202;28;20078;-73
2023/03/21 10:54:47;;;;;;;0.17;0.17;;;9.60;99.90;;;;;;5033545;28;20032;-74
2023/03/21 10:57:20;;;;;;;0.20;0.20;;;9.60;99.90;;;;;;5033164;28;20642;-73
2023/03/21 10:59:56;;;;;;;0.10;0.10;;;9.60;99.90;;;;;;5033456;28;20026;-74
2023/03/21 11:02:30;;;;;;;0.10;0.10;;;9.50;99.90;;;;;;5033960;28;20449;-73
2023/03/21 11:04:57;;;;;;;0.10;0.10;;;9.60;99.90;;;;;;5033999;28;20018;-74
2023/03/21 11:07:29;;;;;;;0.20;0.20;;;9.60;99.90;;;;;;5033206;28;20041;-74
2023/03/21 11:09:58;;;;;;;0.10;0.10;;;9.60;99.90;;;;;;5033300;28;20056;-74
2023/03/21 11:12:36;;;;;;;0.10;0.10;;;9.70;99.90;;;;;;5033957;28;20030;-74
2023/03/21 11:15:13;;;;;;;0.10;0.10;;;9.80;99.90;;;;;;5033476;28;20635;-73
2023/03/21 11:17:40;;;;;;;0.20;0.20;;;9.80;99.90;;;;;;5033246;28;20045;-73
2023/03/21 11:20:10;;;;;;;0.15;0.15;;;9.80;99.90;;;;;;5033546;28;20080;-73
2023/03/21 11:22:42;;;;;;;0.20;0.20;;;9.80;99.90;;;;;;5032754;28;20035;-73
2023/03/21 11:25:18;;;;;;;0.20;0.20;;;9.80;99.90;;;;;;5033659;28;20032;-73
2023/03/21 11:27:49;;;;;;;0.10;0.10;;;9.80;99.90;;;;;;5033590;28;20024;-74
2023/03/21 11:30:22;;;;;;;0.10;0.10;;;9.90;99.90;;;;;;5033710;28;20098;-73
2023/03/21 11:32:54;;;;;;;0.10;0.10;;;9.90;99.90;;;;;;5024506;28;20026;-73
2023/03/21 11:35:35;;;;;;;0.10;0.10;;;9.80;99.90;;;;;;5013154;28;20097;-73
2023/03/21 11:38:02;;;;;;;0.10;0.10;;;9.80;99.90;;;;;;5013674;28;20069;-73
2023/03/21 11:40:38;;;;;;;0.20;0.20;;;9.90;99.90;;;;;;5013826;28;20036;-73
2023/03/21 11:43:25;;;;;;;0.10;0.10;;;9.80;99.90;;;;;;4995914;28;20030;-73
2023/03/21 11:46:08;;;;;;;0.10;0.10;;;9.90;99.90;;;;;;4993562;28;20019;-73
2023/03/21 11:48:41;;;;;;;0.10;0.10;;;9.90;99.90;;;;;;4995886;28;20026;-73
2023/03/21 11:51:25;;;;;;;0.10;0.10;;;9.90;99.90;;;;;;5003943;28;20364;-73
2023/03/21 11:54:11;;;;;;;0.10;0.10;;;9.90;99.90;;;;;;5036761;28;20052;-73
2023/03/21 11:56:53;;;;;;;0.10;0.10;;;9.90;99.90;;;;;;5019296;28;20400;-73
2023/03/21 11:59:38;;;;;;;0.10;0.10;;;10.00;99.90;;;;;;5036901;28;20114;-73
2023/03/21 12:02:22;;;;;;;0.10;0.10;;;10.00;99.90;;;;;;5036633;28;20032;-74
2023/03/21 12:05:28;;;;;;;0.10;0.10;;;9.90;99.90;;;;;;5010670;28;20075;-74
2023/03/21 12:08:22;;;;;;;0.20;0.20;;;10.00;99.90;;;;;;5019202;28;20033;-73
2023/03/21 12:10:54;;;;;;;0.10;0.10;;;10.00;99.90;;;;;;5035954;28;20502;-73
2023/03/21 12:13:40;;;;;;;0.10;0.10;;;10.00;99.90;;;;;;5036769;28;20121;-74
2023/03/21 12:16:29;;;;;;;0.10;0.10;;;10.00;99.90;;;;;;5036359;28;20475;-73
2023/03/21 12:19:30;;;;;;;0.10;0.10;;;10.00;99.90;;;;;;5037226;28;20026;-73
2023/03/21 12:22:37;;;;;;;0.10;0.10;;;10.00;99.90;;;;;;5010104;28;20494;-73
2023/03/21 12:25:31;;;;;;;0.10;0.10;;;10.00;99.90;;;;;;5018555;28;20040;-73
2023/03/21 12:28:09;;;;;;;0.15;0.15;;;10.00;99.90;;;;;;5035960;28;20356;-73
2023/03/21 12:30:59;;;;;;;0.10;0.10;;;10.00;99.90;;;;;;5036499;28;20026;-73
2023/03/21 12:33:39;;;;;;;0.10;0.10;;;10.00;99.90;;;;;;5036304;28;20086;-74
2023/03/21 12:36:17;;;;;;;0.20;0.20;;;10.00;99.90;;;;;;5036182;28;20018;-73
2023/03/21 12:39:04;;;;;;;0.13;0.13;;;10.00;99.90;;;;;;5036107;28;20542;-73
2023/03/21 12:42:04;;;;;;;0.10;0.10;;;10.10;99.90;;;;;;5017708;28;20040;-73
2023/03/21 12:44:35;;;;;;;0.10;0.10;;;10.10;99.90;;;;;;5036007;28;20562;-73
2023/03/21 12:47:10;;;;;;;0.10;0.10;;;10.00;99.90;;;;;;5017774;28;20033;-73
2023/03/21 12:49:53;;;;;;;0.10;0.10;;;10.10;99.90;;;;;;5036062;28;20590;-73
2023/03/21 12:52:35;;;;;;;0.10;0.10;;;10.00;99.90;;;;;;5035210;28;20037;-72
2023/03/21 12:55:04;;;;;;;0.20;0.20;;;10.00;99.90;;;;;;5036045;28;20091;-73
2023/03/21 12:57:35;;;;;;;0.10;0.10;;;10.00;99.90;;;;;;5035490;28;20028;-73
2023/03/21 13:00:12;;;;;;;0.15;0.15;;;10.00;99.90;;;;;;5034500;28;20568;-73
2023/03/21 13:02:48;;;;;;;0.10;0.10;;;9.90;99.90;;;;;;5017666;28;20044;-73
2023/03/21 13:05:26;;;;;;;0.10;0.10;;;9.90;99.90;;;;;;5034395;28;20483;-73
2023/03/21 13:08:21;;;;;;;0.10;0.10;;;9.90;99.90;;;;;;5034723;28;20100;-73
2023/03/21 13:10:47;;;;;;;0.10;0.10;;;9.90;99.90;;;;;;5030855;28;20391;-73
2023/03/21 13:13:20;;;;;;;0.10;0.10;;;10.00;99.90;;;;;;5033999;28;20442;-73
2023/03/21 13:16:26;;;;;;;0.20;0.20;;;10.10;99.90;;;;;;5034504;28;20103;-73